Time;durP1;ratioP1;P1;durP2;ratioP2;P2;SDS_P1;SDS_P2;PMS_P1;PMS_P2;Temp;Humidity;BMP_temperature;BMP_pressure;BME280_temperature;BME280_humidity;BME280_pressure;Samples;Min_cycle;Max_cycle;Signal;HPM_P1;HPM_P2
2023/12/20 00:00:22;;;;;;;60.37;30.07;;;;;;;-144.30;100.00;86720.66;5110157;28;20238;-60
2023/12/20 00:02:49;;;;;;;51.67;28.30;;;;;;;-144.30;100.00;86710.72;5110580;28;20574;-59
2023/12/20 00:05:16;;;;;;;63.50;29.53;;;;;;;-144.30;100.00;86716.69;5110134;28;20626;-59
2023/12/20 00:07:44;;;;;;;57.57;28.53;;;;;;;-144.30;100.00;86716.69;5110160;28;20271;-60
2023/12/20 00:10:12;;;;;;;61.27;29.60;;;;;;;-144.30;100.00;86732.59;5110025;28;20204;-59
2023/12/20 00:12:40;;;;;;;58.57;30.23;;;;;;;-144.30;100.00;86680.88;5110065;28;20220;-58
2023/12/20 00:15:08;;;;;;;59.97;29.17;;;;;;;-144.30;100.00;86766.41;5110114;28;20731;-59
2023/12/20 00:17:35;;;;;;;56.07;29.43;;;;;;;-144.30;100.00;86746.50;5109944;28;20778;-59
2023/12/20 00:20:01;;;;;;;51.57;28.57;;;;;;;-144.30;100.00;86736.56;5109984;28;20593;-59
2023/12/20 00:22:28;;;;;;;52.70;27.53;;;;;;;-144.30;100.00;86748.50;5110112;28;20198;-59
2023/12/20 00:24:57;;;;;;;55.27;28.30;;;;;;;-144.30;100.00;86746.50;5110023;28;20208;-59
2023/12/20 00:27:24;;;;;;;55.80;27.50;;;;;;;-144.30;100.00;86732.59;5109597;28;20194;-59
2023/12/20 00:29:51;;;;;;;54.47;27.20;;;;;;;-144.30;100.00;86748.50;5110013;28;20620;-59
2023/12/20 00:32:18;;;;;;;52.37;27.23;;;;;;;-144.30;100.00;86730.59;5109596;28;20200;-58
2023/12/20 00:34:45;;;;;;;52.17;25.93;;;;;;;-144.30;100.00;86738.56;5109842;28;20194;-59
2023/12/20 00:37:12;;;;;;;48.50;25.17;;;;;;;-144.30;100.00;86746.50;5109722;28;20601;-59
2023/12/20 00:39:39;;;;;;;47.83;24.10;;;;;;;-144.30;100.00;86740.53;5109618;28;20194;-59
2023/12/20 00:42:07;;;;;;;45.17;23.47;;;;;;;-144.30;100.00;86708.72;5109394;28;20311;-59
2023/12/20 00:44:34;;;;;;;45.07;21.57;;;;;;;-144.30;100.00;86724.63;5109754;28;20201;-59
2023/12/20 00:47:01;;;;;;;46.20;22.20;;;;;;;-144.30;100.00;86748.50;5109858;28;20197;-59
2023/12/20 00:49:28;;;;;;;37.67;21.33;;;;;;;-144.30;100.00;86744.53;5110159;28;20212;-59
2023/12/20 00:51:55;;;;;;;36.00;20.67;;;;;;;-144.30;100.00;86742.53;5109644;28;20200;-59
2023/12/20 00:54:22;;;;;;;37.07;20.17;;;;;;;-144.30;100.00;86742.53;5109517;28;20199;-59
2023/12/20 00:56:49;;;;;;;31.83;20.03;;;;;;;-144.30;100.00;86728.59;5109456;28;20689;-60
2023/12/20 00:59:18;;;;;;;34.87;20.37;;;;;;;-144.30;100.00;86752.47;5109505;28;20194;-59
2023/12/20 01:01:44;;;;;;;35.80;20.13;;;;;;;-144.30;100.00;86720.66;5109739;28;20887;-60
2023/12/20 01:04:11;;;;;;;41.00;19.53;;;;;;;-144.30;100.00;86732.59;5109570;28;20198;-59
2023/12/20 01:06:38;;;;;;;39.80;19.97;;;;;;;-144.30;100.00;86762.41;5109867;28;20190;-58
2023/12/20 01:09:05;;;;;;;34.57;19.00;;;;;;;-144.30;100.00;86740.53;5109304;28;20233;-62
2023/12/20 01:11:32;;;;;;;33.13;19.23;;;;;;;-144.30;100.00;86720.66;5109567;28;20202;-59
2023/12/20 01:13:59;;;;;;;35.77;19.67;;;;;;;-144.30;100.00;86716.69;5109398;28;20718;-59
2023/12/20 01:16:27;;;;;;;34.50;19.43;;;;;;;-144.30;100.00;86736.56;5109064;28;20729;-59
2023/12/20 01:18:54;;;;;;;35.73;19.83;;;;;;;-144.30;100.00;86710.72;5109465;28;20233;-58
2023/12/20 01:21:21;;;;;;;31.57;19.03;;;;;;;-144.30;100.00;86724.63;5109213;28;20202;-59
2023/12/20 01:23:48;;;;;;;33.40;18.57;;;;;;;-144.30;100.00;86744.53;5109548;28;20213;-59
2023/12/20 01:26:16;;;;;;;29.03;16.73;;;;;;;-144.30;100.00;86702.75;5109061;28;20186;-59
2023/12/20 01:28:43;;;;;;;26.33;16.30;;;;;;;-144.30;100.00;86750.50;5109468;28;20194;-58
2023/12/20 01:31:10;;;;;;;27.63;15.27;;;;;;;-144.30;100.00;86724.63;5109213;28;20202;-58
2023/12/20 01:33:38;;;;;;;29.97;16.87;;;;;;;-144.30;100.00;86734.56;5109144;28;20191;-59
2023/12/20 01:36:06;;;;;;;29.40;16.00;;;;;;;-144.30;100.00;86748.50;5109112;28;20209;-59
2023/12/20 01:38:33;;;;;;;29.47;16.20;;;;;;;-144.30;100.00;86734.56;5109611;28;20281;-60
2023/12/20 01:41:00;;;;;;;29.80;16.17;;;;;;;-144.30;100.00;86782.31;5109076;28;20233;-59
2023/12/20 01:43:27;;;;;;;30.47;17.13;;;;;;;-144.30;100.00;86710.72;5109385;28;20626;-60
2023/12/20 01:45:54;;;;;;;30.40;16.67;;;;;;;-144.30;100.00;86784.28;5109470;28;20232;-59
2023/12/20 01:48:21;;;;;;;34.00;17.50;;;;;;;-144.30;100.00;86760.44;5112647;28;20206;-59
2023/12/20 01:50:50;;;;;;;34.13;17.23;;;;;;;-144.30;100.00;86766.41;5112773;28;20198;-59
2023/12/20 01:53:17;;;;;;;29.80;15.80;;;;;;;-144.30;100.00;86778.31;5112651;28;20201;-59
2023/12/20 01:55:45;;;;;;;27.13;16.40;;;;;;;-144.30;100.00;86780.31;5112623;28;20195;-60
2023/12/20 01:58:13;;;;;;;29.73;15.10;;;;;;;-144.30;100.00;86744.53;5112440;28;20225;-59
2023/12/20 02:00:40;;;;;;;24.60;14.37;;;;;;;-144.30;100.00;86754.47;5112963;28;20297;-60
2023/12/20 02:03:07;;;;;;;24.40;12.93;;;;;;;-144.30;100.00;86720.66;5112942;28;20584;-58
2023/12/20 02:05:36;;;;;;;26.90;12.97;;;;;;;-144.30;100.00;86724.63;5112950;28;20289;-59
2023/12/20 02:08:05;;;;;;;26.40;13.73;;;;;;;-144.30;100.00;86776.34;5112460;28;20195;-59
2023/12/20 02:10:32;;;;;;;21.13;12.47;;;;;;;-144.30;100.00;86617.25;5112251;28;20708;-58
2023/12/20 02:12:59;;;;;;;19.47;12.47;;;;;;;-144.30;100.00;86788.28;5112642;28;20203;-59
2023/12/20 02:15:26;;;;;;;24.70;12.63;;;;;;;-144.30;100.00;86792.25;5112047;28;20199;-59
2023/12/20 02:17:54;;;;;;;19.70;11.77;;;;;;;-144.30;100.00;86780.31;5112169;28;20225;-60
2023/12/20 02:20:21;;;;;;;21.40;11.87;;;;;;;-144.30;100.00;86776.34;5112213;28;20592;-59
2023/12/20 02:22:49;;;;;;;21.27;12.73;;;;;;;-144.30;100.00;86780.31;5112113;28;20197;-59
2023/12/20 02:25:16;;;;;;;18.27;12.37;;;;;;;-144.30;100.00;86758.44;5112072;28;20276;-59
2023/12/20 02:27:44;;;;;;;27.03;13.20;;;;;;;-144.30;100.00;86780.31;5112039;28;20666;-59
2023/12/20 02:30:11;;;;;;;20.30;12.77;;;;;;;-144.30;100.00;86770.38;5111957;28;20560;-59
2023/12/20 02:32:38;;;;;;;20.17;11.87;;;;;;;-144.30;100.00;86756.44;5112125;28;20226;-58
2023/12/20 02:35:06;;;;;;;19.20;12.50;;;;;;;-144.30;100.00;86788.28;5111875;28;20202;-59
2023/12/20 02:37:34;;;;;;;20.33;12.07;;;;;;;-144.30;100.00;86776.34;5111608;28;20222;-59
2023/12/20 02:40:02;;;;;;;23.57;12.77;;;;;;;-144.30;100.00;86748.50;5111880;28;20237;-58
2023/12/20 02:42:29;;;;;;;23.73;12.40;;;;;;;-144.30;100.00;86766.41;5111527;28;20309;-59
2023/12/20 02:44:56;;;;;;;20.27;12.20;;;;;;;-144.30;100.00;86786.28;5111897;28;20585;-59
2023/12/20 02:47:23;;;;;;;17.90;11.87;;;;;;;-144.30;100.00;86796.22;5111528;28;20186;-59
2023/12/20 02:49:50;;;;;;;20.43;12.07;;;;;;;-144.30;100.00;86776.34;5111661;28;20205;-58
2023/12/20 02:52:17;;;;;;;23.57;12.27;;;;;;;-144.30;100.00;86778.31;5111541;28;20194;-60
2023/12/20 02:54:44;;;;;;;22.70;12.57;;;;;;;-144.30;100.00;86792.25;5112100;28;20583;-60
2023/12/20 02:57:13;;;;;;;21.30;12.87;;;;;;;-144.30;100.00;86708.72;5111172;28;20218;-59
2023/12/20 02:59:40;;;;;;;18.40;12.37;;;;;;;-144.30;100.00;86788.28;5111078;28;20768;-58
2023/12/20 03:02:07;;;;;;;20.20;12.03;;;;;;;-144.30;100.00;86734.56;5111373;28;20595;-58
2023/12/20 03:04:33;;;;;;;18.43;11.03;;;;;;;-144.30;100.00;86784.28;5111505;28;20667;-59
2023/12/20 03:07:00;;;;;;;20.20;12.13;;;;;;;-144.30;100.00;86780.31;5111328;28;20208;-60
2023/12/20 03:09:27;;;;;;;17.50;11.30;;;;;;;-144.30;100.00;86780.31;5111195;28;20198;-59
2023/12/20 03:11:54;;;;;;;19.00;11.37;;;;;;;-144.30;100.00;86796.22;5111562;28;20708;-59
2023/12/20 03:14:22;;;;;;;19.53;11.70;;;;;;;-144.30;100.00;86664.97;5111288;28;20588;-58
2023/12/20 03:16:51;;;;;;;17.83;10.87;;;;;;;-144.30;100.00;86746.50;5110984;28;20222;-61
2023/12/20 03:19:18;;;;;;;16.93;10.97;;;;;;;-144.30;100.00;86778.31;5111003;28;20194;-59
2023/12/20 03:21:45;;;;;;;17.80;10.93;;;;;;;-144.30;100.00;86792.25;5110851;28;20202;-58
2023/12/20 03:24:12;;;;;;;19.53;11.27;;;;;;;-144.30;100.00;86752.47;5111083;28;20267;-60
2023/12/20 03:26:39;;;;;;;19.37;11.70;;;;;;;-144.30;100.00;86768.38;5110742;28;20197;-59
2023/12/20 03:29:06;;;;;;;15.77;10.60;;;;;;;-144.30;100.00;86762.41;5110646;28;20209;-59
2023/12/20 03:31:34;;;;;;;16.23;10.33;;;;;;;-144.30;100.00;86776.34;5111002;28;20194;-59
2023/12/20 03:34:01;;;;;;;13.87;9.27;;;;;;;-144.30;100.00;86804.19;5110754;28;20229;-58
2023/12/20 03:36:28;;;;;;;15.33;9.87;;;;;;;-144.30;100.00;86784.28;5110513;28;20196;-59
2023/12/20 03:38:55;;;;;;;15.83;9.73;;;;;;;-144.30;100.00;86784.28;5110838;28;20683;-59
2023/12/20 03:41:21;;;;;;;15.10;9.70;;;;;;;-144.30;100.00;86806.16;5110390;28;20577;-59
2023/12/20 03:43:48;;;;;;;16.17;10.13;;;;;;;-144.30;100.00;86780.31;5110742;27;20557;-59
2023/12/20 03:46:15;;;;;;;19.03;10.40;;;;;;;-144.30;100.00;86822.09;5110633;28;20217;-59
2023/12/20 03:48:44;;;;;;;17.57;10.40;;;;;;;-144.30;100.00;86774.34;5110175;28;20194;-59
2023/12/20 03:51:10;;;;;;;19.23;10.50;;;;;;;-144.30;100.00;86788.28;5110331;28;20199;-60
2023/12/20 03:53:37;;;;;;;22.63;11.30;;;;;;;-144.30;100.00;86786.28;5110463;28;20688;-60
2023/12/20 03:56:04;;;;;;;18.83;10.53;;;;;;;-144.30;100.00;86782.31;5110484;28;20651;-58
2023/12/20 03:58:31;;;;;;;15.90;10.67;;;;;;;-144.30;100.00;86778.31;5110326;28;20228;-59
2023/12/20 04:00:58;;;;;;;18.13;10.90;;;;;;;-144.30;100.00;86760.44;5109874;28;20191;-60
2023/12/20 04:03:25;;;;;;;23.37;11.67;;;;;;;-144.30;100.00;86756.44;5110414;28;20541;-59
2023/12/20 04:05:53;;;;;;;17.80;11.17;;;;;;;-144.30;100.00;86802.19;5110303;28;20204;-59
2023/12/20 04:08:21;;;;;;;18.20;11.07;;;;;;;-144.30;100.00;86792.25;5109795;28;20508;-60
2023/12/20 04:10:48;;;;;;;18.77;11.37;;;;;;;-144.30;100.00;86784.28;5109945;28;20200;-58
2023/12/20 04:13:15;;;;;;;20.07;12.87;;;;;;;-144.30;100.00;86780.31;5109552;28;20573;-59
2023/12/20 04:15:42;;;;;;;22.57;12.40;;;;;;;-144.30;100.00;86774.34;5108707;28;20205;-59
2023/12/20 04:18:09;;;;;;;19.53;11.83;;;;;;;-144.30;100.00;86780.31;5109232;28;20225;-59
2023/12/20 04:20:36;;;;;;;20.83;12.13;;;;;;;-144.30;100.00;86778.31;5109497;28;20193;-59
2023/12/20 04:23:05;;;;;;;23.20;13.37;;;;;;;-144.30;100.00;86788.28;5109625;28;20189;-61
2023/12/20 04:25:32;;;;;;;22.03;12.80;;;;;;;-144.30;100.00;86800.19;5109589;28;20678;-59
2023/12/20 04:27:59;;;;;;;24.87;13.27;;;;;;;-144.30;100.00;86726.63;5109564;28;20186;-59
2023/12/20 04:30:25;;;;;;;23.87;12.63;;;;;;;-144.30;100.00;86762.41;5109247;28;20195;-60
2023/12/20 04:32:52;;;;;;;21.97;12.97;;;;;;;-144.30;100.00;86776.34;5109406;28;20201;-60
2023/12/20 04:35:19;;;;;;;23.13;12.83;;;;;;;-144.30;100.00;86808.16;5109726;28;20201;-60
2023/12/20 04:37:47;;;;;;;18.63;12.03;;;;;;;-144.30;100.00;86782.31;5110054;28;20222;-59
2023/12/20 04:40:15;;;;;;;19.67;13.03;;;;;;;-144.30;100.00;86810.16;5109830;28;20202;-59
2023/12/20 04:42:42;;;;;;;23.43;13.37;;;;;;;-144.30;100.00;86979.19;5109791;28;20267;-60
2023/12/20 04:45:09;;;;;;;25.17;14.40;;;;;;;-144.30;100.00;86808.16;5109776;28;20208;-60
2023/12/20 04:47:36;;;;;;;29.20;14.70;;;;;;;-144.30;100.00;86748.50;5110138;28;20625;-60
2023/12/20 04:50:04;;;;;;;27.73;15.23;;;;;;;-144.30;100.00;86772.34;5109905;28;20259;-59
2023/12/20 04:52:31;;;;;;;29.10;16.33;;;;;;;-144.30;100.00;86778.31;5109880;28;20588;-59
2023/12/20 04:54:59;;;;;;;28.87;16.43;;;;;;;-144.30;100.00;86804.19;5109887;28;20205;-59
2023/12/20 04:57:27;;;;;;;28.23;16.83;;;;;;;-144.30;100.00;86800.19;5109447;28;20390;-59
2023/12/20 04:59:57;;;;;;;27.67;17.20;;;;;;;-144.30;100.00;86808.16;5110016;28;20741;-59
2023/12/20 05:02:24;;;;;;;30.17;18.13;;;;;;;-144.30;100.00;86768.38;5109652;28;20606;-55
2023/12/20 05:04:51;;;;;;;32.30;17.37;;;;;;;-144.30;100.00;86784.28;5109965;28;20206;-58
2023/12/20 05:07:18;;;;;;;32.27;17.47;;;;;;;-144.30;100.00;86812.13;5109833;28;20578;-57
2023/12/20 05:09:45;;;;;;;31.23;17.90;;;;;;;-144.30;100.00;86768.38;5109657;28;20200;-58
2023/12/20 05:12:11;;;;;;;32.20;17.57;;;;;;;-144.30;100.00;86768.38;5109455;28;20204;-58
2023/12/20 05:14:40;;;;;;;30.53;18.13;;;;;;;-144.30;100.00;86760.44;5109625;28;20195;-58
2023/12/20 05:17:07;;;;;;;31.93;18.33;;;;;;;-144.30;100.00;86772.34;5109505;28;20255;-58
2023/12/20 05:19:35;;;;;;;31.87;18.10;;;;;;;-144.30;100.00;86812.13;5109556;28;20700;-57
2023/12/20 05:22:01;;;;;;;33.90;18.07;;;;;;;-144.30;100.00;86802.19;5111689;28;20263;-59
2023/12/20 05:24:28;;;;;;;36.40;19.07;;;;;;;-144.30;100.00;86814.13;5113260;28;20199;-59
2023/12/20 05:26:55;;;;;;;37.57;18.30;;;;;;;-144.30;100.00;86756.44;5112904;28;20197;-59
2023/12/20 05:29:22;;;;;;;31.13;17.20;;;;;;;-144.30;100.00;86776.34;5112681;28;20198;-58
2023/12/20 05:31:51;;;;;;;32.90;17.73;;;;;;;-144.30;100.00;86814.13;5112408;28;20606;-59
2023/12/20 05:34:18;;;;;;;32.33;17.60;;;;;;;-144.30;100.00;86816.13;5112539;28;20199;-59
2023/12/20 05:36:44;;;;;;;30.93;17.87;;;;;;;-144.30;100.00;86768.38;5112469;28;20617;-58
2023/12/20 05:39:11;;;;;;;33.67;18.10;;;;;;;-144.30;100.00;86800.19;5112734;28;20299;-59
2023/12/20 05:41:38;;;;;;;30.27;17.80;;;;;;;-144.30;100.00;86780.31;5112926;28;20709;-59
2023/12/20 05:44:05;;;;;;;33.37;18.50;;;;;;;-144.30;100.00;86790.25;5113180;28;20293;-59
2023/12/20 05:46:32;;;;;;;31.63;18.70;;;;;;;-144.30;100.00;86816.13;5113175;28;20696;-56
2023/12/20 05:49:01;;;;;;;34.07;18.50;;;;;;;-144.30;100.00;86784.28;5113087;28;20200;-56
2023/12/20 05:51:29;;;;;;;35.83;19.93;;;;;;;-144.30;100.00;86796.22;5113123;28;20302;-56
2023/12/20 05:53:56;;;;;;;33.00;19.40;;;;;;;-144.30;100.00;86760.44;5113197;28;20194;-56
2023/12/20 05:56:23;;;;;;;30.53;17.73;;;;;;;-144.30;100.00;86790.25;5112789;28;20199;-55
2023/12/20 05:58:50;;;;;;;33.63;18.83;;;;;;;-144.30;100.00;86788.28;5112594;28;20222;-56
2023/12/20 06:01:17;;;;;;;34.30;21.13;;;;;;;-144.30;100.00;86768.38;5112532;28;20208;-56
2023/12/20 06:03:45;;;;;;;41.93;22.13;;;;;;;-144.30;100.00;86802.19;5112529;28;20250;-57
2023/12/20 06:06:14;;;;;;;36.10;21.57;;;;;;;-144.30;100.00;86774.34;5112379;28;20681;-58
2023/12/20 06:08:43;;;;;;;36.60;20.93;;;;;;;-144.30;99.73;86756.44;5112880;28;20194;-58
2023/12/20 06:11:10;;;;;;;38.80;20.07;;;;;;;-144.30;99.49;86730.59;5112547;28;20194;-56
2023/12/20 06:13:37;;;;;;;35.97;19.70;;;;;;;-144.30;99.72;86758.44;5112642;28;20578;-57
2023/12/20 06:16:07;;;;;;;30.00;18.47;;;;;;;-144.30;99.14;86736.56;5112575;28;20197;-57
2023/12/20 06:18:34;;;;;;;26.53;17.13;;;;;;;-144.30;99.07;86778.31;5112222;28;20221;-58
2023/12/20 06:21:01;;;;;;;27.03;16.67;;;;;;;-144.30;99.37;86792.25;5112454;28;20201;-58
2023/12/20 06:23:29;;;;;;;32.53;17.30;;;;;;;-144.30;99.51;86756.44;5112424;28;20222;-58
2023/12/20 06:25:56;;;;;;;32.63;17.10;;;;;;;-144.30;99.34;86776.34;5107372;28;20198;-58
2023/12/20 06:28:23;;;;;;;27.70;15.50;;;;;;;-144.30;99.52;86772.34;5111911;28;20221;-58
2023/12/20 06:30:52;;;;;;;28.03;16.37;;;;;;;-144.30;99.43;86800.19;5111685;28;20197;-58
2023/12/20 06:33:21;;;;;;;25.53;16.13;;;;;;;-144.30;99.08;86768.38;5111495;28;20713;-58
2023/12/20 06:35:48;;;;;;;25.27;14.40;;;;;;;-144.30;98.97;86804.19;5112108;27;20207;-56
2023/12/20 06:38:15;;;;;;;26.83;15.70;;;;;;;-144.30;99.22;86780.31;5111776;28;20221;-57
2023/12/20 06:40:43;;;;;;;24.37;13.77;;;;;;;-144.30;99.32;86734.56;5110939;28;20282;-57
2023/12/20 06:43:10;;;;;;;26.10;15.50;;;;;;;-144.30;99.20;86784.28;5111804;28;20644;-57
2023/12/20 06:45:37;;;;;;;24.87;14.73;;;;;;;-144.30;99.32;86790.25;5111762;27;20251;-57
2023/12/20 06:48:05;;;;;;;24.23;15.13;;;;;;;-144.30;98.76;86778.31;5112187;28;20241;-61
2023/12/20 06:50:32;;;;;;;25.87;14.70;;;;;;;-144.30;98.85;86764.41;5111561;28;20630;-59
2023/12/20 06:52:59;;;;;;;25.93;14.13;;;;;;;-144.30;98.94;86776.34;5112122;28;20201;-57
2023/12/20 06:55:25;;;;;;;25.10;13.90;;;;;;;-144.30;98.61;86760.44;5109832;28;20202;-56
2023/12/20 06:57:54;;;;;;;23.07;13.00;;;;;;;-144.30;98.34;86756.44;5111554;28;20757;-57
2023/12/20 07:00:21;;;;;;;22.07;13.77;;;;;;;-144.30;98.62;86758.44;5109902;28;20298;-61
2023/12/20 07:02:48;;;;;;;22.47;13.57;;;;;;;-144.30;98.77;86772.34;5111318;28;20198;-56
2023/12/20 07:05:20;;;;;;;21.27;13.17;;;;;;;-144.30;98.47;86756.44;5111173;28;20277;-57
2023/12/20 07:07:47;;;;;;;20.40;12.60;;;;;;;-144.30;98.55;86744.53;5111394;28;20726;-61
2023/12/20 07:10:14;;;;;;;23.10;12.97;;;;;;;-144.30;98.37;86748.50;5110466;28;20716;-56
2023/12/20 07:12:41;;;;;;;19.20;13.47;;;;;;;-144.30;98.47;86776.34;5111108;28;20255;-60
2023/12/20 07:15:10;;;;;;;20.63;12.67;;;;;;;-144.30;98.72;86748.50;5111072;28;20199;-61
2023/12/20 07:17:37;;;;;;;22.70;13.57;;;;;;;-144.30;98.69;86720.66;5110271;28;20289;-57
2023/12/20 07:20:09;;;;;;;22.00;14.20;;;;;;;-144.30;98.50;86780.31;5110694;28;20199;-61
2023/12/20 07:22:36;;;;;;;23.50;14.37;;;;;;;-144.30;98.01;86746.50;5111478;28;20659;-63
2023/12/20 07:25:03;;;;;;;22.60;13.73;;;;;;;-144.30;97.87;86939.41;5110968;28;20569;-57
2023/12/20 07:27:30;;;;;;;23.00;14.27;;;;;;;-144.30;97.82;86762.41;5110735;28;20251;-59
2023/12/20 07:29:57;;;;;;;23.10;14.20;;;;;;;-144.30;97.72;86742.53;5111560;28;20208;-57
2023/12/20 07:32:26;;;;;;;26.57;14.53;;;;;;;-144.30;98.08;86680.88;5110549;28;20202;-60
2023/12/20 07:34:53;;;;;;;23.97;14.93;;;;;;;-144.30;97.48;86760.44;5110767;28;20191;-57
2023/12/20 07:37:20;;;;;;;19.37;13.43;;;;;;;-144.30;97.00;86748.50;5106803;28;20225;-60
2023/12/20 07:39:47;;;;;;;30.67;15.17;;;;;;;-144.30;96.88;86724.63;5110411;28;20639;-65
2023/12/20 07:42:15;;;;;;;19.87;13.53;;;;;;;-144.30;96.67;87359.09;5109974;28;20262;-59
2023/12/20 07:44:41;;;;;;;22.87;14.23;;;;;;;-144.30;97.01;86688.84;5109276;28;20205;-62
2023/12/20 07:47:09;;;;;;;22.27;13.83;;;;;;;-144.30;96.60;86728.59;5109840;28;20259;-58
2023/12/20 07:49:37;;;;;;;17.93;12.50;;;;;;;-144.30;96.73;86724.63;5110632;28;20186;-57
2023/12/20 07:52:05;;;;;;;24.30;12.73;;;;;;;-144.30;96.14;86720.66;5110942;28;20590;-62
2023/12/20 07:54:32;;;;;;;26.43;12.13;;;;;;;-144.30;96.05;86676.91;5110305;28;20726;-59
2023/12/20 07:56:58;;;;;;;21.87;11.93;;;;;;;-144.30;95.96;86664.97;5110876;28;20286;-61
2023/12/20 07:59:25;;;;;;;24.57;12.57;;;;;;;-144.30;95.68;86714.69;5110227;28;20222;-61
2023/12/20 08:01:52;;;;;;;22.07;12.40;;;;;;;-144.30;95.01;86712.69;5110415;28;20194;-57
2023/12/20 08:04:19;;;;;;;23.30;12.70;;;;;;;-144.30;93.83;86684.84;5110250;28;20212;-58
2023/12/20 08:06:47;;;;;;;19.67;12.30;;;;;;;-144.30;94.09;86680.88;5110557;28;20190;-60
2023/12/20 08:09:14;;;;;;;22.93;12.87;;;;;;;-144.30;93.36;86684.84;5110243;28;20571;-61
2023/12/20 08:11:46;;;;;;;24.37;11.93;;;;;;;-144.30;93.18;86696.78;5110242;28;20196;-62
2023/12/20 08:14:13;;;;;;;21.80;12.80;;;;;;;-144.30;92.81;86692.81;5109997;28;20294;-63
2023/12/20 08:16:40;;;;;;;21.53;13.00;;;;;;;-144.30;92.51;86694.81;5110233;28;20259;-58
2023/12/20 08:19:07;;;;;;;21.80;13.33;;;;;;;-144.30;92.28;86692.81;5110062;28;20218;-58
2023/12/20 08:21:34;;;;;;;21.60;13.70;;;;;;;-144.30;92.85;86692.81;5110034;28;20208;-57
2023/12/20 08:24:02;;;;;;;26.83;14.60;;;;;;;-144.30;92.23;86543.66;5110458;28;20684;-59
2023/12/20 08:26:29;;;;;;;19.47;14.27;;;;;;;-144.30;91.97;86668.94;5110057;28;20251;-58
2023/12/20 08:28:56;;;;;;;23.70;14.03;;;;;;;-144.30;92.09;86664.97;5110084;28;20198;-57
2023/12/20 08:31:23;;;;;;;21.73;13.70;;;;;;;-144.30;91.94;86645.09;5110055;28;20202;-57
2023/12/20 08:33:50;;;;;;;23.47;14.43;;;;;;;-144.30;92.30;86668.94;5110178;28;20205;-58
2023/12/20 08:36:18;;;;;;;23.20;14.43;;;;;;;-144.30;92.42;86629.19;5109636;28;20201;-58
2023/12/20 08:38:45;;;;;;;24.40;14.50;;;;;;;-144.30;92.82;86659.00;5109698;28;20314;-57
2023/12/20 08:41:13;;;;;;;21.87;13.93;;;;;;;-144.30;92.30;86661.00;5109721;28;20612;-56
2023/12/20 08:43:41;;;;;;;27.23;15.27;;;;;;;-144.30;91.87;86662.97;5109846;28;20300;-55
2023/12/20 08:46:10;;;;;;;23.43;15.50;;;;;;;-144.30;91.87;86662.97;5109470;28;20201;-55
2023/12/20 08:48:37;;;;;;;30.30;16.23;;;;;;;-144.30;91.47;86647.06;5109538;28;20190;-56
2023/12/20 08:51:06;;;;;;;23.30;15.80;;;;;;;-144.30;91.37;86662.97;5109658;28;20202;-56
2023/12/20 08:53:34;;;;;;;28.27;16.50;;;;;;;-144.30;90.93;86621.22;5109743;28;20233;-55
2023/12/20 08:56:01;;;;;;;26.87;16.03;;;;;;;-144.30;90.68;86641.09;5107111;28;20202;-55
2023/12/20 08:58:30;;;;;;;24.70;16.37;;;;;;;-144.30;90.96;86623.22;5113504;28;20275;-56
2023/12/20 09:00:57;;;;;;;27.13;16.03;;;;;;;-144.30;90.46;86631.16;5112788;28;20205;-56
2023/12/20 09:03:24;;;;;;;29.83;16.70;;;;;;;-144.30;90.10;86591.38;5113851;28;20282;-55
2023/12/20 09:05:51;;;;;;;26.77;15.90;;;;;;;-144.30;90.46;86601.34;5112587;28;20294;-57
2023/12/20 09:08:18;;;;;;;26.60;16.23;;;;;;;-144.30;89.62;86597.34;5113662;28;20666;-56
2023/12/20 09:10:45;;;;;;;25.20;16.33;;;;;;;-144.30;89.37;86581.44;5113594;28;20202;-56
2023/12/20 09:13:12;;;;;;;32.33;16.07;;;;;;;-144.30;89.30;86589.41;5113552;28;20198;-56
2023/12/20 09:15:40;;;;;;;23.13;15.60;;;;;;;-144.30;89.62;86565.53;5113592;28;20356;-58
2023/12/20 09:18:07;;;;;;;30.13;15.70;;;;;;;-144.30;88.64;86565.53;5113546;28;20194;-57
2023/12/20 09:20:35;;;;;;;29.77;15.80;;;;;;;-144.30;88.59;86523.78;5113675;28;20254;-58
2023/12/20 09:23:02;;;;;;;22.20;15.13;;;;;;;-144.30;88.07;86571.50;5113740;28;20191;-58
2023/12/20 09:25:29;;;;;;;25.83;15.97;;;;;;;-144.30;87.63;86565.53;5113872;28;20319;-58
2023/12/20 09:27:56;;;;;;;24.50;15.57;;;;;;;-144.30;87.03;86541.69;5113600;28;20202;-57
2023/12/20 09:30:23;;;;;;;25.87;15.83;;;;;;;-144.30;87.02;86585.44;5113027;28;20625;-57
2023/12/20 09:32:52;;;;;;;25.60;16.07;;;;;;;-144.30;87.24;86573.50;5113542;28;20195;-57
2023/12/20 09:35:18;;;;;;;22.97;15.77;;;;;;;-144.30;87.63;86474.06;5113073;28;20201;-58
2023/12/20 09:37:46;;;;;;;22.63;14.77;;;;;;;-144.30;87.49;86593.38;5113180;28;20197;-57
2023/12/20 09:40:14;;;;;;;22.20;13.97;;;;;;;-144.30;87.33;86553.59;5112876;28;20226;-57
2023/12/20 09:42:50;;;;;;;20.40;13.87;;;;;;;-144.30;87.29;86585.44;5113077;28;20249;-58
2023/12/20 09:45:21;;;;;;;21.63;13.83;;;;;;;-144.30;87.50;86589.41;5113007;28;20716;-58
2023/12/20 09:47:49;;;;;;;20.00;13.27;;;;;;;-144.30;87.49;86567.53;5113084;28;20195;-58
2023/12/20 09:50:20;;;;;;;23.67;14.17;;;;;;;-144.30;87.65;86573.50;5112827;28;20328;-57
2023/12/20 09:52:51;;;;;;;25.80;14.20;;;;;;;-144.30;87.60;86553.59;5112831;28;20194;-57
2023/12/20 09:55:19;;;;;;;25.73;14.60;;;;;;;-144.30;85.31;86547.66;5112587;28;20198;-57
2023/12/20 09:57:46;;;;;;;25.80;15.63;;;;;;;-144.30;84.43;86567.53;5112586;28;20202;-58
2023/12/20 10:00:15;;;;;;;26.33;15.83;;;;;;;-144.30;82.32;86571.50;5112748;28;20636;-57
2023/12/20 10:02:51;;;;;;;26.87;15.77;;;;;;;-144.30;81.30;86619.22;5128987;28;20730;-56
2023/12/20 10:05:35;;;;;;;28.27;16.30;;;;;;;-144.30;80.46;86567.53;5129298;28;20194;-55
2023/12/20 10:08:06;;;;;;;24.23;15.27;;;;;;;-144.30;80.20;86565.53;5126288;28;20205;-58
2023/12/20 10:10:44;;;;;;;25.70;16.27;;;;;;;-144.30;79.42;86517.81;5122690;28;20194;-58
2023/12/20 10:13:14;;;;;;;24.20;14.20;;;;;;;-144.30;78.87;86553.59;5127217;28;20251;-57
2023/12/20 10:15:47;;;;;;;22.13;15.47;;;;;;;-144.30;78.46;86476.06;5127496;28;20190;-57
2023/12/20 10:18:20;;;;;;;24.90;15.30;;;;;;;-144.30;77.95;86559.56;5125234;28;20214;-58
2023/12/20 10:20:51;;;;;;;18.53;13.93;;;;;;;-144.30;77.39;86535.72;5130306;28;20642;-59
2023/12/20 10:23:21;;;;;;;20.83;13.33;;;;;;;-144.30;76.37;86404.47;5128562;28;20195;-58
2023/12/20 10:25:59;;;;;;;19.77;12.80;;;;;;;-144.30;76.15;86513.84;5128470;28;20198;-58
2023/12/20 10:28:31;;;;;;;20.80;13.03;;;;;;;-144.30;75.62;86525.75;5128529;28;20220;-56
2023/12/20 10:31:06;;;;;;;20.57;12.63;;;;;;;-144.30;74.91;86493.94;5130493;28;20586;-58
2023/12/20 10:33:35;;;;;;;20.90;12.77;;;;;;;-144.30;74.72;86482.03;5129323;28;20202;-56
2023/12/20 10:36:04;;;;;;;17.57;12.73;;;;;;;-144.30;74.24;86462.13;5112584;28;20286;-55
2023/12/20 10:38:33;;;;;;;19.33;12.43;;;;;;;-144.30;73.70;86422.38;5119747;28;20258;-56
2023/12/20 10:41:08;;;;;;;20.33;13.63;;;;;;;-144.30;73.25;86438.28;5126582;28;20230;-55
2023/12/20 10:43:38;;;;;;;20.93;12.57;;;;;;;-144.30;73.35;86466.09;5128528;28;20304;-58
2023/12/20 10:46:10;;;;;;;25.60;13.70;;;;;;;-144.30;73.20;86446.22;5120055;27;20195;-58
2023/12/20 10:48:38;;;;;;;20.07;12.97;;;;;;;-144.30;73.05;86428.31;5113659;27;20635;-59
2023/12/20 10:51:08;;;;;;;19.80;12.23;;;;;;;-144.30;72.39;86456.16;5112106;28;20579;-59
2023/12/20 10:53:40;;;;;;;16.93;12.20;;;;;;;-144.30;72.61;86472.06;5122035;28;20203;-60
2023/12/20 10:56:19;;;;;;;19.47;13.23;;;;;;;-144.30;72.34;86486.00;5124835;28;20206;-57
2023/12/20 10:58:47;;;;;;;19.93;13.03;;;;;;;-144.30;72.27;86440.25;5124248;28;20281;-57